Home   Weather   Germany   Dortmund   Past weeks
Flag for Germany

Past Weather in Dortmund, North Rhine-Westphalia, Germany — Yesterday and Last 2 Weeks

Currently: 68 °F. Sunny. (Weather station: Dortmund / Wickede, Germany). See more current weather

Past Weather in Dortmund — Graph

°F

Dortmund Temperature Yesterday

Maximum temperature yesterday: 86 °F (at 2:50 pm)
Minimum temperature yesterday: 70 °F (at 3:50 am)
Average temperature yesterday: 77 °F

High & Low Weather Summary for the Past Weeks

 TemperatureHumidityPressure
High93 °F (Jun 17, 2:20 pm)100% (Jun 5, 5:20 am)30.36 "Hg (Jun 5, 5:20 am)
Low48 °F (Jun 13, 5:50 am)26% (Jun 17, 2:20 pm)29.71 "Hg (Jun 20, 4:20 am)
Average69 °F66%30.09 "Hg
* Reported Jun 5 5:20 am — Jun 20 5:50 am, Dortmund. Weather by CustomWeather, © 2021

Note: Actual official high and low records may vary slightly from our data, if they occured in-between our weather recording intervals... More about our weather records

Dortmund Weather History for the Previous 24 Hours

Scroll right to see more
 ConditionsComfort  
Time TempWeatherWind HumidityBarometerVisibility
5:50 am
Sun, Jun 20
66 °FSunny.9 mph94%29.71 "Hg10 mi
5:20 am66 °FSunny.9 mph94%29.71 "Hg10 mi
4:50 am66 °FPassing clouds.14 mph94%29.71 "HgN/A
4:20 am64 °FPartly cloudy.12 mph94%29.71 "HgN/A
3:50 am66 °FPartly cloudy.14 mph88%29.74 "Hg4 mi
3:20 am64 °FPassing clouds.5 mph100%29.74 "HgN/A
2:50 am66 °FPassing clouds.3 mph100%29.77 "HgN/A
2:20 am66 °FMostly cloudy.17 mph100%29.83 "Hg1 mi
1:50 am68 °FPartly cloudy.5 mph94%29.74 "Hg4 mi
1:20 am70 °FPassing clouds.3 mph83%29.74 "HgN/A
12:50 am72 °FPassing clouds.3 mph73%29.77 "HgN/A
12:20 am75 °FPassing clouds.8 mph61%29.80 "HgN/A
11:50 pm
Sat, Jun 19
73 °FPassing clouds.8 mph65%29.80 "HgN/A
11:20 pm75 °FClear.12 mph57%29.80 "HgN/A
10:50 pm75 °FClear.9 mph57%29.83 "HgN/A
10:20 pm75 °FClear.7 mph57%29.83 "Hg10 mi
9:50 pm77 °FClear.6 mph54%29.86 "Hg10 mi
9:20 pm77 °FPassing clouds.6 mph54%29.86 "HgN/A
8:50 pm79 °FSunny.3 mph51%29.86 "Hg10 mi
8:20 pm81 °FSunny.6 mph48%29.86 "Hg10 mi
7:50 pm81 °FPassing clouds.7 mph48%29.86 "HgN/A
7:20 pm82 °FSunny.8 mph42%29.89 "Hg10 mi
6:50 pm84 °FSunny.5 mph40%29.89 "Hg10 mi
6:20 pm84 °FPassing clouds.5 mph40%29.89 "HgN/A
5:50 pm84 °FPassing clouds.6 mph43%29.89 "HgN/A
5:20 pm84 °FPassing clouds.5 mph43%29.92 "HgN/A
4:50 pm86 °FSunny.5 mph38%29.92 "Hg10 mi
4:20 pm84 °FPassing clouds.6 mph40%29.92 "HgN/A
3:50 pm84 °FSunny.6 mph37%29.92 "Hg10 mi
3:20 pm84 °FPassing clouds.8 mph35%29.92 "HgN/A
2:50 pm86 °FPassing clouds.8 mph35%29.92 "HgN/A
2:20 pm84 °FSunny.2 mph40%29.92 "Hg10 mi
1:50 pm82 °FSunny.5 mph40%29.92 "Hg10 mi
1:20 pm82 °FSunny.5 mph45%29.95 "Hg10 mi
12:50 pm81 °FSunny.5 mph45%29.95 "Hg10 mi
12:20 pm79 °FSunny.5 mph51%29.95 "Hg10 mi
11:50 am79 °FPassing clouds.6 mph51%29.98 "HgN/A
11:20 am77 °FPassing clouds.7 mph54%29.98 "HgN/A
10:50 am77 °FPassing clouds.8 mph54%29.98 "HgN/A
10:20 am75 °FPassing clouds.9 mph57%29.98 "HgN/A
9:50 am73 °FPassing clouds.12 mph61%29.98 "HgN/A
9:20 am73 °FSunny.12 mph61%29.98 "Hg10 mi
8:50 am73 °FSunny.12 mph61%29.98 "Hg10 mi
8:20 am73 °FPassing clouds.8 mph65%29.98 "HgN/A
7:50 am72 °FSunny.12 mph69%29.98 "Hg10 mi
7:20 am72 °FSunny.12 mph69%29.95 "Hg10 mi
Weather by CustomWeather, © 2021

See weather overview